createdAt,value
2018-06-22T00:01:31.819Z,98101.52
2018-06-22T00:04:03.893Z,98106.91
2018-06-22T00:06:37.078Z,98108.25
2018-06-22T00:09:11.896Z,98112.81
2018-06-22T00:11:44.026Z,98116.55
2018-06-22T00:14:16.707Z,98119.50
2018-06-22T00:16:49.388Z,98122.47
2018-06-22T00:19:22.393Z,98131.37
2018-06-22T00:24:31.818Z,98125.64
2018-06-22T00:27:04.779Z,98128.33
2018-06-22T00:29:37.915Z,98131.89
2018-06-22T00:32:10.401Z,98127.85
2018-06-22T00:34:42.875Z,98129.20
2018-06-22T00:37:15.083Z,98131.78
2018-06-22T00:39:48.072Z,98127.28
2018-06-22T00:42:20.144Z,98134.88
2018-06-22T00:44:53.089Z,98137.05
2018-06-22T00:47:25.529Z,98140.27
2018-06-22T00:49:58.656Z,98147.00
2018-06-22T00:52:31.346Z,98144.08
2018-06-22T00:55:03.976Z,98143.00
2018-06-22T00:57:36.627Z,98145.42
2018-06-22T01:00:08.968Z,98151.78
2018-06-22T01:02:41.047Z,98144.75
2018-06-22T01:05:13.826Z,98144.98
2018-06-22T01:07:45.930Z,98150.36
2018-06-22T01:10:18.713Z,98149.91
2018-06-22T01:12:51.277Z,98147.14
2018-06-22T01:15:24.150Z,98149.02
2018-06-22T01:17:56.507Z,98149.91
2018-06-22T01:20:29.902Z,98143.70
2018-06-22T01:23:01.979Z,98143.59
2018-06-22T01:25:35.281Z,98147.41
2018-06-22T01:28:07.720Z,98152.48
2018-06-22T01:30:40.005Z,98153.83
2018-06-22T01:33:12.100Z,98146.28
2018-06-22T01:35:45.541Z,98150.31
2018-06-22T01:38:18.685Z,98151.44
2018-06-22T01:40:51.288Z,98148.37
2018-06-22T01:43:23.960Z,98156.97
2018-06-22T01:45:57.213Z,98155.48
2018-06-22T01:48:30.000Z,98158.77
2018-06-22T01:51:02.830Z,98158.39
2018-06-22T01:53:35.463Z,98161.31
2018-06-22T01:56:08.394Z,98164.52
2018-06-22T01:58:41.848Z,98160.27
2018-06-22T02:01:14.497Z,98162.36
2018-06-22T02:03:47.015Z,98159.22
2018-06-22T02:06:19.540Z,98168.64
2018-06-22T02:08:51.741Z,98176.12
2018-06-22T02:11:24.700Z,98167.74
2018-06-22T02:13:56.995Z,98169.76
2018-06-22T02:16:31.659Z,98178.95
2018-06-22T02:19:04.613Z,98173.73
2018-06-22T02:21:36.994Z,98177.16
2018-06-22T02:24:09.430Z,98184.50
2018-06-22T02:26:41.764Z,98185.24
2018-06-22T02:29:13.936Z,98182.55
2018-06-22T02:31:46.587Z,98178.81
2018-06-22T02:34:19.160Z,98185.84
2018-06-22T02:36:51.535Z,98179.03
2018-06-22T02:39:24.156Z,98176.94
2018-06-22T02:41:57.012Z,98172.83
2018-06-22T02:44:29.294Z,98180.53
2018-06-22T02:47:01.598Z,98171.78
2018-06-22T02:49:33.501Z,98180.45
2018-06-22T02:52:06.347Z,98177.77
2018-06-22T02:54:39.095Z,98179.64
2018-06-22T02:57:11.410Z,98181.06
2018-06-22T02:59:44.601Z,98179.56
2018-06-22T03:02:17.098Z,98184.72
2018-06-22T03:04:49.786Z,98178.06
2018-06-22T03:07:22.511Z,98178.52
2018-06-22T03:09:55.048Z,98182.03
2018-06-22T03:12:27.503Z,98178.06
2018-06-22T03:15:00.288Z,98172.68
2018-06-22T03:17:32.619Z,98176.42
2018-06-22T03:20:05.000Z,98173.02
2018-06-22T03:22:37.250Z,98169.80
2018-06-22T03:25:09.867Z,98171.75
2018-06-22T03:27:42.769Z,98165.32
2018-06-22T03:30:15.284Z,98169.66
2018-06-22T03:32:48.037Z,98172.35
2018-06-22T03:35:20.896Z,98167.48
2018-06-22T03:37:53.351Z,98165.02
2018-06-22T03:40:26.306Z,98164.50
2018-06-22T03:42:59.213Z,98167.48
2018-06-22T03:45:31.877Z,98163.97
2018-06-22T03:48:04.845Z,98163.97
2018-06-22T03:50:37.141Z,98156.94
2018-06-22T03:53:09.217Z,98156.94
2018-06-22T03:55:42.046Z,98161.84
2018-06-22T03:58:14.377Z,98153.73
2018-06-22T04:00:47.009Z,98155.52
2018-06-22T04:03:20.038Z,98152.38
2018-06-22T04:05:53.771Z,98155.41
2018-06-22T04:08:26.136Z,98153.20
2018-06-22T04:10:58.944Z,98156.20
2018-06-22T04:13:31.467Z,98159.23
2018-06-22T04:16:03.798Z,98157.88
2018-06-22T04:18:36.740Z,98158.70
2018-06-22T04:21:09.708Z,98157.95
2018-06-22T04:23:42.516Z,98158.08
2018-06-22T04:26:15.078Z,98156.31
2018-06-22T04:28:48.000Z,98158.41
2018-06-22T04:31:20.357Z,98157.20
2018-06-22T04:33:52.986Z,98160.65
2018-06-22T04:36:25.235Z,98162.64
2018-06-22T04:38:57.614Z,98159.83
2018-06-22T04:41:30.623Z,98165.11
2018-06-22T04:44:03.786Z,98160.55
2018-06-22T04:46:36.490Z,98155.68
2018-06-22T04:49:09.281Z,98156.14
2018-06-22T04:51:41.605Z,98160.69
2018-06-22T04:54:14.252Z,98161.11
2018-06-22T04:56:47.740Z,98153.19
2018-06-22T04:59:20.797Z,98155.00
2018-06-22T05:01:53.951Z,98157.25
2018-06-22T05:04:26.785Z,98152.14
2018-06-22T05:06:59.996Z,98152.40
2018-06-22T05:09:32.393Z,98156.95
2018-06-22T05:12:04.443Z,98158.42
2018-06-22T05:14:36.777Z,98156.14
2018-06-22T05:17:09.460Z,98161.00
2018-06-22T05:19:41.856Z,98157.75
2018-06-22T05:22:14.847Z,98149.19
2018-06-22T05:24:47.457Z,98150.02
2018-06-22T05:27:19.908Z,98145.88
2018-06-22T05:29:52.866Z,98145.35
2018-06-22T05:32:25.915Z,98144.90
2018-06-22T05:34:58.968Z,98143.30
2018-06-22T05:37:31.580Z,98145.54
2018-06-22T05:40:04.197Z,98138.81
2018-06-22T05:42:36.468Z,98132.38
2018-06-22T05:45:09.410Z,98128.56
2018-06-22T05:47:41.756Z,98139.03
2018-06-22T05:50:14.866Z,98127.99
2018-06-22T05:52:47.665Z,98128.15
2018-06-22T05:55:20.743Z,98124.25
2018-06-22T05:57:52.783Z,98123.84
2018-06-22T06:00:25.226Z,98122.45
2018-06-22T06:02:57.629Z,98117.00
2018-06-22T06:05:30.235Z,98110.42
2018-06-22T06:08:02.858Z,98115.28
2018-06-22T06:10:36.254Z,98114.53
2018-06-22T06:13:08.772Z,98110.19
2018-06-22T06:15:41.437Z,98119.84
2018-06-22T06:18:13.633Z,98116.69
2018-06-22T06:20:46.350Z,98116.98
2018-06-22T06:23:18.772Z,98119.45
2018-06-22T06:25:51.274Z,98111.08
2018-06-22T06:28:23.424Z,98109.66
2018-06-22T06:30:57.729Z,98107.27
2018-06-22T06:33:34.722Z,98107.08
2018-06-22T06:36:14.310Z,98099.39
2018-06-22T06:38:47.033Z,98099.98
2018-06-22T06:41:20.516Z,98103.43
2018-06-22T06:43:58.623Z,98092.66
2018-06-22T06:46:40.509Z,98091.08
2018-06-22T06:49:19.382Z,98090.03
2018-06-22T06:51:57.899Z,98088.61
2018-06-22T06:54:32.564Z,98081.00
2018-06-22T06:57:04.969Z,98077.52
2018-06-22T06:59:37.043Z,98074.06
2018-06-22T07:02:09.895Z,98071.96
2018-06-22T07:04:42.455Z,98063.16
2018-06-22T07:07:15.148Z,98060.78
2018-06-22T07:09:47.951Z,98053.06
2018-06-22T07:12:20.088Z,98049.25
2018-06-22T07:14:52.326Z,98053.30
2018-06-22T07:17:24.584Z,98044.75
2018-06-22T07:19:57.295Z,98043.11
2018-06-22T07:22:29.640Z,98045.57
2018-06-22T07:25:02.340Z,98045.90
2018-06-22T07:27:34.813Z,98033.30
2018-06-22T07:30:07.811Z,98033.89
2018-06-22T07:32:40.004Z,98033.01
2018-06-22T07:35:12.740Z,98022.95
2018-06-22T07:37:45.702Z,98021.55
2018-06-22T07:40:18.253Z,98015.86
2018-06-22T07:42:51.471Z,98011.81
2018-06-22T07:45:24.291Z,98008.07
2018-06-22T07:47:57.077Z,98004.37
2018-06-22T07:50:32.817Z,97996.82
2018-06-22T07:53:05.698Z,97998.34
2018-06-22T07:55:38.007Z,97995.63
2018-06-22T07:58:13.931Z,97988.25
2018-06-22T08:00:46.694Z,97981.30
2018-06-22T08:03:19.327Z,97979.42
2018-06-22T08:05:51.758Z,97982.63
2018-06-22T08:08:24.781Z,97982.88
2018-06-22T08:11:01.022Z,97976.79
2018-06-22T08:13:33.459Z,97972.45
2018-06-22T08:16:07.597Z,97976.64
2018-06-22T08:18:41.474Z,97966.97
2018-06-22T08:21:14.320Z,97968.27
2018-06-22T08:23:46.963Z,97965.56
2018-06-22T08:26:20.689Z,97957.27
2018-06-22T08:28:53.413Z,97956.70
2018-06-22T08:31:26.305Z,97954.30
2018-06-22T08:33:59.632Z,97944.96
2018-06-22T08:36:32.715Z,97947.13
2018-06-22T08:39:07.421Z,97935.55
2018-06-22T08:41:40.139Z,97923.18
2018-06-22T08:44:13.360Z,97930.98
2018-06-22T08:46:46.083Z,97922.06
2018-06-22T08:49:18.838Z,97915.09
2018-06-22T08:51:51.196Z,97913.95
2018-06-22T08:54:23.587Z,97911.42
2018-06-22T08:56:56.232Z,97903.15
2018-06-22T08:59:29.160Z,97893.07
2018-06-22T09:02:02.503Z,97889.84
2018-06-22T09:04:34.834Z,97884.27
2018-06-22T09:07:07.355Z,97882.52
2018-06-22T09:09:40.205Z,97880.66
2018-06-22T09:12:12.970Z,97873.38
2018-06-22T09:14:45.445Z,97867.17
2018-06-22T09:17:18.388Z,97863.42
2018-06-22T09:19:51.031Z,97860.97
2018-06-22T09:22:23.488Z,97850.70
2018-06-22T09:24:56.762Z,97841.36
2018-06-22T09:27:29.423Z,97849.08
2018-06-22T09:30:03.236Z,97849.14
2018-06-22T09:32:36.001Z,97844.74
2018-06-22T09:35:10.471Z,97835.30
2018-06-22T09:37:43.122Z,97827.66
2018-06-22T09:40:15.980Z,97823.32
2018-06-22T09:42:49.436Z,97819.20
2018-06-22T09:45:22.792Z,97814.39
2018-06-22T09:47:57.586Z,97813.14
2018-06-22T09:50:30.695Z,97808.34
2018-06-22T09:53:03.974Z,97811.95
2018-06-22T09:55:36.879Z,97810.62
2018-06-22T09:58:09.127Z,97804.41
2018-06-22T10:00:46.827Z,97797.23
2018-06-22T10:03:19.892Z,97784.17
2018-06-22T10:05:53.104Z,97790.67
2018-06-22T10:08:26.487Z,97791.48
2018-06-22T10:10:59.388Z,97776.70
2018-06-22T10:13:32.595Z,97773.75
2018-06-22T10:16:06.488Z,97770.48
2018-06-22T10:18:38.588Z,97763.31
2018-06-22T10:21:11.623Z,97760.09
2018-06-22T10:23:44.101Z,97759.80
2018-06-22T10:26:17.301Z,97755.98
2018-06-22T10:28:56.081Z,97750.59
2018-06-22T10:31:29.361Z,97745.72
2018-06-22T10:34:02.353Z,97733.62
2018-06-22T10:36:34.689Z,97734.45
2018-06-22T10:39:09.810Z,97736.38
2018-06-22T10:41:43.364Z,97732.90
2018-06-22T10:44:16.564Z,97729.92
2018-06-22T10:46:49.334Z,97731.56
2018-06-22T10:49:22.142Z,97726.73
2018-06-22T10:51:55.401Z,97725.09
2018-06-22T10:54:28.365Z,97725.34
2018-06-22T10:57:01.665Z,97721.30
2018-06-22T10:59:34.797Z,97716.76
2018-06-22T11:02:08.014Z,97715.81
2018-06-22T11:04:40.656Z,97708.41
2018-06-22T11:07:13.646Z,97711.36
2018-06-22T11:09:46.069Z,97708.13
2018-06-22T11:12:19.145Z,97709.23
2018-06-22T11:14:51.751Z,97704.20
2018-06-22T11:17:24.522Z,97704.25
2018-06-22T11:19:57.006Z,97699.95
2018-06-22T11:22:30.308Z,97696.92
2018-06-22T11:25:03.135Z,97687.72
2018-06-22T11:27:36.615Z,97683.17
2018-06-22T11:30:09.304Z,97692.09
2018-06-22T11:32:42.273Z,97691.32
2018-06-22T11:35:14.546Z,97688.45
2018-06-22T11:37:46.882Z,97693.48
2018-06-22T11:40:19.237Z,97687.47
2018-06-22T11:42:51.708Z,97689.28
2018-06-22T11:45:24.072Z,97686.66
2018-06-22T11:47:57.170Z,97685.02
2018-06-22T11:50:30.047Z,97677.38
2018-06-22T11:53:03.860Z,97683.87
2018-06-22T11:55:37.344Z,97677.91
2018-06-22T11:58:09.605Z,97672.22
2018-06-22T12:00:42.894Z,97670.06
2018-06-22T12:03:15.389Z,97670.88
2018-06-22T12:05:47.979Z,97669.48
2018-06-22T12:08:21.191Z,97671.41
2018-06-22T12:10:54.199Z,97674.06
2018-06-22T12:13:27.877Z,97675.16
2018-06-22T12:16:01.178Z,97675.70
2018-06-22T12:18:34.636Z,97671.37
2018-06-22T12:21:08.143Z,97671.13
2018-06-22T12:23:41.606Z,97673.58
2018-06-22T12:26:15.095Z,97671.94
2018-06-22T12:28:48.706Z,97676.03
2018-06-22T12:31:21.530Z,97677.34
2018-06-22T12:33:54.951Z,97680.96
2018-06-22T12:36:28.127Z,97680.14
2018-06-22T12:39:01.053Z,97682.89
2018-06-22T12:41:34.082Z,97679.41
2018-06-22T12:44:07.578Z,97684.03
2018-06-22T12:46:40.858Z,97680.58
2018-06-22T12:49:14.146Z,97682.55
2018-06-22T12:51:47.057Z,97677.92
2018-06-22T12:54:20.034Z,97684.48
2018-06-22T12:56:52.601Z,97685.87
2018-06-22T12:59:25.704Z,97684.24
2018-06-22T13:01:59.117Z,97690.45
2018-06-22T13:04:32.176Z,97687.52
2018-06-22T13:07:05.677Z,97694.50
2018-06-22T13:09:40.348Z,97697.73
2018-06-22T13:12:13.079Z,97693.54
2018-06-22T13:14:47.366Z,97695.99
2018-06-22T13:17:20.380Z,97693.34
2018-06-22T13:19:53.765Z,97700.95
2018-06-22T13:22:26.554Z,97704.47
2018-06-22T13:24:59.911Z,97707.98
2018-06-22T13:27:33.317Z,97712.85
2018-06-22T13:30:05.804Z,97719.59
2018-06-22T13:32:37.730Z,97720.42
2018-06-22T13:35:10.913Z,97725.81
2018-06-22T13:37:43.567Z,97732.81
2018-06-22T13:40:24.308Z,97736.86
2018-06-22T13:42:56.510Z,97741.73
2018-06-22T13:45:28.428Z,97750.36
2018-06-22T13:48:01.280Z,97756.04
2018-06-22T13:50:33.781Z,97754.41
2018-06-22T13:53:06.339Z,97764.12
2018-06-22T13:55:39.676Z,97764.51
2018-06-22T13:58:12.718Z,97760.11
2018-06-22T14:00:45.773Z,97765.56
2018-06-22T14:03:20.580Z,97773.75
2018-06-22T14:05:57.910Z,97781.03
2018-06-22T14:08:30.719Z,97792.64
2018-06-22T14:11:03.255Z,97781.56
2018-06-22T14:13:35.936Z,97785.09
2018-06-22T14:16:08.530Z,97782.69
2018-06-22T14:18:40.876Z,97782.97
2018-06-22T14:21:13.741Z,97782.73
2018-06-22T14:23:47.906Z,97785.73
2018-06-22T14:26:20.398Z,97793.02
2018-06-22T14:28:53.035Z,97794.61
2018-06-22T14:31:25.768Z,97798.28
2018-06-22T14:33:58.115Z,97792.89
2018-06-22T14:36:30.591Z,97799.94
2018-06-22T14:39:03.176Z,97807.25
2018-06-22T14:41:36.157Z,97815.88
2018-06-22T14:44:08.784Z,97817.47
2018-06-22T14:46:41.180Z,97817.19
2018-06-22T14:49:14.136Z,97821.52
2018-06-22T14:51:46.928Z,97832.31
2018-06-22T14:54:24.244Z,97829.73
2018-06-22T14:57:01.564Z,97832.45
2018-06-22T14:59:38.207Z,97832.20
2018-06-22T15:02:15.509Z,97837.36
2018-06-22T15:04:52.595Z,97844.87
2018-06-22T15:07:29.263Z,97854.03
2018-06-22T15:10:02.238Z,97860.00
2018-06-22T15:12:34.618Z,97868.14
2018-06-22T15:15:09.282Z,97866.03
2018-06-22T15:17:46.499Z,97866.28
2018-06-22T15:20:19.151Z,97873.32
2018-06-22T15:22:51.805Z,97877.13
2018-06-22T15:25:24.865Z,97872.27
2018-06-22T15:27:57.179Z,97865.27
2018-06-22T15:30:30.234Z,97876.59
2018-06-22T15:33:03.334Z,97879.18
2018-06-22T15:35:40.838Z,97878.12
2018-06-22T15:39:21.155Z,97880.29
2018-06-22T15:41:58.999Z,97894.31
2018-06-22T15:44:36.240Z,97888.14
2018-06-22T15:47:13.347Z,97888.67
2018-06-22T15:49:50.251Z,97898.66
2018-06-22T15:52:27.702Z,97897.87
2018-06-22T15:55:04.927Z,97896.78
2018-06-22T15:57:37.997Z,97900.88
2018-06-22T16:00:12.634Z,97911.15
2018-06-22T16:02:49.874Z,97907.92
2018-06-22T16:05:22.933Z,97906.05
2018-06-22T16:07:55.813Z,97916.30
2018-06-22T16:10:28.552Z,97921.17
2018-06-22T16:13:01.427Z,97916.02
2018-06-22T16:15:38.961Z,97923.58
2018-06-22T16:18:15.957Z,97924.93
2018-06-22T16:20:53.473Z,97927.63
2018-06-22T16:23:30.736Z,97925.98
2018-06-22T16:26:08.191Z,97929.51
2018-06-22T16:28:40.370Z,97935.73
2018-06-22T16:31:12.452Z,97933.50
2018-06-22T16:33:55.222Z,97936.44
2018-06-22T16:36:29.173Z,97938.06
2018-06-22T16:39:02.480Z,97939.96
2018-06-22T16:41:35.209Z,97933.72
2018-06-22T16:44:08.656Z,97938.30
2018-06-22T16:46:41.342Z,97933.20
2018-06-22T16:49:14.164Z,97935.66
2018-06-22T16:51:47.022Z,97939.70
2018-06-22T16:54:19.964Z,97938.35
2018-06-22T16:56:53.304Z,97935.09
2018-06-22T16:59:26.183Z,97945.36
2018-06-22T17:01:58.676Z,97947.00
2018-06-22T17:04:32.161Z,97945.36
2018-06-22T17:07:08.959Z,97954.55
2018-06-22T17:09:46.049Z,97956.89
2018-06-22T17:12:23.287Z,97952.32
2018-06-22T17:15:00.428Z,97961.82
2018-06-22T17:17:37.810Z,97970.09
2018-06-22T17:20:10.372Z,97974.41
2018-06-22T17:22:44.143Z,97977.09
2018-06-22T17:25:16.710Z,97981.13
2018-06-22T17:27:49.537Z,97982.33
2018-06-22T17:30:22.298Z,97976.95
2018-06-22T17:32:54.722Z,97982.40
2018-06-22T17:35:27.980Z,97983.45
2018-06-22T17:38:00.553Z,97982.33
2018-06-22T17:40:33.694Z,97990.41
2018-06-22T17:43:06.225Z,97991.69
2018-06-22T17:45:39.209Z,97997.38
2018-06-22T17:48:11.979Z,97996.09
2018-06-22T17:50:44.483Z,97997.60
2018-06-22T17:53:17.098Z,98002.47
2018-06-22T17:55:49.741Z,98000.91
2018-06-22T17:58:22.439Z,98004.96
2018-06-22T18:00:59.724Z,98008.39
2018-06-22T18:03:36.563Z,97999.56
2018-06-22T18:06:13.469Z,98001.12
2018-06-22T18:08:49.597Z,97999.33
2018-06-22T18:11:26.766Z,98003.37
2018-06-22T18:13:59.996Z,98003.67
2018-06-22T18:16:33.007Z,98006.92
2018-06-22T18:19:05.710Z,98005.05
2018-06-22T18:21:38.449Z,98005.55
2018-06-22T18:24:11.049Z,98002.34
2018-06-22T18:26:44.210Z,97998.59
2018-06-22T18:29:16.849Z,97998.30
2018-06-22T18:31:49.513Z,97991.55
2018-06-22T18:34:22.656Z,97988.86
2018-06-22T18:36:55.197Z,97990.20
2018-06-22T18:39:27.651Z,97991.55
2018-06-22T18:42:00.690Z,97988.86
2018-06-22T18:44:33.573Z,97991.84
2018-06-22T18:47:06.427Z,97991.84
2018-06-22T18:49:39.071Z,97989.91
2018-06-22T18:52:16.894Z,97987.22
2018-06-22T18:54:54.269Z,97982.11
2018-06-22T18:57:31.753Z,97983.45
2018-06-22T19:00:10.229Z,97977.01
2018-06-22T19:02:47.656Z,97979.41
2018-06-22T19:05:20.614Z,97981.13
2018-06-22T19:07:53.009Z,97977.75
2018-06-22T19:10:25.634Z,97982.88
2018-06-22T19:12:58.969Z,97980.47
2018-06-22T19:15:31.599Z,97978.06
2018-06-22T19:18:04.460Z,97981.81
2018-06-22T19:20:37.215Z,97983.45
2018-06-22T19:23:10.037Z,97975.89
2018-06-22T19:25:43.042Z,97979.94
2018-06-22T19:28:15.477Z,97972.91
2018-06-22T19:30:48.865Z,97976.13
2018-06-22T19:33:21.805Z,97973.99
2018-06-22T19:35:54.229Z,97970.50
2018-06-22T19:41:17.684Z,97960.23
2018-06-22T19:43:54.305Z,97965.63
2018-06-22T19:46:31.708Z,97962.09
2018-06-22T19:49:09.090Z,97962.86
2018-06-22T19:51:46.679Z,97964.78
2018-06-22T19:54:19.140Z,97962.86
2018-06-22T19:56:51.275Z,97965.02
2018-06-22T19:59:23.567Z,97966.91
2018-06-22T20:01:56.717Z,97962.86
2018-06-22T20:04:29.838Z,97962.86
2018-06-22T20:07:01.979Z,97962.53
2018-06-22T20:09:34.205Z,97966.37
2018-06-22T20:12:06.519Z,97959.02
2018-06-22T20:14:39.025Z,97957.67
2018-06-22T20:17:11.501Z,97954.53
2018-06-22T20:19:44.508Z,97958.05
2018-06-22T20:22:16.835Z,97952.56
2018-06-22T20:24:53.524Z,97953.62
2018-06-22T20:27:25.575Z,97959.63
2018-06-22T20:29:57.920Z,97951.01
2018-06-22T20:32:30.246Z,97953.09
2018-06-22T20:35:07.561Z,97946.58
2018-06-22T20:37:53.883Z,97943.05
2018-06-22T20:40:30.337Z,97952.78
2018-06-22T20:43:07.211Z,97954.59
2018-06-22T20:45:56.308Z,97947.03
2018-06-22T20:48:32.929Z,97948.09
2018-06-22T20:51:05.123Z,97946.45
2018-06-22T20:53:36.922Z,97941.86
2018-06-22T20:56:09.157Z,97929.21
2018-06-22T20:58:41.414Z,97934.05
2018-06-22T21:01:14.169Z,97927.57
2018-06-22T21:03:46.814Z,97923.53
2018-06-22T21:06:19.232Z,97933.52
2018-06-22T21:08:51.483Z,97932.95
2018-06-22T21:11:23.528Z,97932.70
2018-06-22T21:13:56.099Z,97924.03
2018-06-22T21:16:28.448Z,97929.42
2018-06-22T21:19:00.771Z,97928.08
2018-06-22T21:21:37.519Z,97930.48
2018-06-22T21:24:09.431Z,97931.25
2018-06-22T21:26:41.557Z,97938.87
2018-06-22T21:29:18.068Z,97940.45
2018-06-22T21:31:55.072Z,97938.23
2018-06-22T21:34:34.660Z,97935.30
2018-06-22T21:37:11.590Z,97936.88
2018-06-22T21:39:44.078Z,97929.06
2018-06-22T21:42:16.370Z,97924.19
2018-06-22T21:44:48.959Z,97913.64
2018-06-22T21:47:21.291Z,97920.33
2018-06-22T21:49:53.407Z,97917.90
2018-06-22T21:52:25.847Z,97924.66
2018-06-22T21:54:58.121Z,97926.25
2018-06-22T21:57:30.642Z,97924.06
2018-06-22T22:00:03.167Z,97922.73
2018-06-22T22:02:35.531Z,97916.81
2018-06-22T22:05:07.925Z,97907.19
2018-06-22T22:07:40.233Z,97912.77
2018-06-22T22:10:12.465Z,97904.67
2018-06-22T22:12:44.286Z,97906.53
2018-06-22T22:15:16.893Z,97901.91
2018-06-22T22:17:49.833Z,97898.67
2018-06-22T22:20:21.712Z,97902.14
2018-06-22T22:22:53.622Z,97897.25
2018-06-22T22:25:26.222Z,97893.76
2018-06-22T22:27:58.814Z,97894.05
2018-06-22T22:30:31.404Z,97898.07
2018-06-22T22:33:03.260Z,97900.19
2018-06-22T22:35:35.802Z,97895.53
2018-06-22T22:38:08.083Z,97889.34
2018-06-22T22:40:40.421Z,97891.27
2018-06-22T22:43:12.631Z,97895.08
2018-06-22T22:45:45.004Z,97886.41
2018-06-22T22:48:17.101Z,97895.19
2018-06-22T22:50:49.922Z,97907.13
2018-06-22T22:53:22.408Z,97899.52
2018-06-22T22:55:54.828Z,97890.14
2018-06-22T22:58:27.121Z,97893.66
2018-06-22T23:00:59.408Z,97892.69
2018-06-22T23:03:31.607Z,97902.74
2018-06-22T23:06:05.036Z,97900.22
2018-06-22T23:08:37.204Z,97899.41
2018-06-22T23:11:10.070Z,97894.30
2018-06-22T23:13:42.395Z,97890.73
2018-06-22T23:16:15.002Z,97893.43
2018-06-22T23:18:47.475Z,97888.51
2018-06-22T23:21:20.037Z,97893.08
2018-06-22T23:23:52.136Z,97893.38
2018-06-22T23:26:24.510Z,97895.54
2018-06-22T23:28:56.912Z,97900.61
2018-06-22T23:31:29.828Z,97909.46
2018-06-22T23:34:02.243Z,97905.42
2018-06-22T23:36:34.710Z,97910.28
2018-06-22T23:39:09.382Z,97918.60
2018-06-22T23:41:41.698Z,97921.00
2018-06-22T23:44:13.897Z,97922.32
2018-06-22T23:46:46.495Z,97923.93
2018-06-22T23:49:19.017Z,97931.48
2018-06-22T23:51:51.489Z,97933.66
2018-06-22T23:54:24.241Z,97939.48
2018-06-22T23:56:56.638Z,97941.33
2018-06-22T23:59:29.191Z,97940.77
